»·PEaware :: N704YA CAD4-KGEG

N704YA :: CAD4-KGEG

FLIGHT INFORMATION

Flight Status: Arrived
Operator: Privately registered:
United States
More flights under this callsign
Pilot: Wayne R. (17783)
Aircraft: CESSNA 150 COMMUTER AEROBAT
(C150)
More flights by this aircraft type
Origin: CAD4 Trail
Canada
Destination: KGEG Spokane Intl
United States
More flights between these airports :: More routes between these airports
Route: +
File this flight plan on PilotEdge
Remarks:
Altitude:
(Current/Filed)
5,500ft
Speed:
(Current/Filed)
150kts
Departed: 08-Dec-19 02:39 PM
Arrived: 08-Dec-19 03:33 PM
Distance/Time
Traveled:
87nm/0:54
Distance/Time
To Go:
Arrived

Flight Plot

Page will automatically refresh every two minutes.

Flight plan parsing failed; only flown route is shown


Map Options




Map Legend


Flown Route
Filed Route
Departure Airport
Arrival Airport
Navaid (VOR, NDB)
Fix

Horizontal Profiles

Position Reports

Time Latitude Longitude Heading Altitude Ground
Speed
08-Dec-19 14:36 49.056136 -117.607991 6 1429ft 10kts
08-Dec-19 14:37 49.058928 -117.609423 0 1429ft 1kts
08-Dec-19 14:38 49.057165 -117.609394 179 1429ft 69kts
08-Dec-19 14:39 49.032409 -117.611444 181 1776ft 98kts
08-Dec-19 14:40 49.005555 -117.623156 210 1862ft 106kts
08-Dec-19 14:41 48.982093 -117.648675 212 2068ft 104kts
08-Dec-19 14:42 48.958233 -117.674054 219 2074ft 104kts
08-Dec-19 14:43 48.946744 -117.712370 262 2135ft 104kts
08-Dec-19 14:44 48.942582 -117.754138 263 2321ft 89kts
08-Dec-19 14:45 48.928984 -117.787947 221 2637ft 107kts
08-Dec-19 14:46 48.905821 -117.815023 219 2967ft 106kts
08-Dec-19 14:47 48.881307 -117.840117 215 3247ft 106kts
08-Dec-19 14:48 48.855253 -117.862686 211 3495ft 107kts
08-Dec-19 14:49 48.827739 -117.882581 207 3824ft 108kts
08-Dec-19 14:50 48.798956 -117.897360 192 4110ft 109kts
08-Dec-19 14:51 48.791947 -117.899503 194 4172ft 109kts
08-Dec-19 14:52 48.761624 -117.906853 189 4425ft 111kts
08-Dec-19 14:53 48.730535 -117.910395 184 4745ft 113kts
08-Dec-19 14:54 48.698815 -117.909830 178 5034ft 114kts
08-Dec-19 14:56 48.666867 -117.905230 173 5271ft 116kts
08-Dec-19 14:57 48.636744 -117.890146 119 5420ft 117kts
08-Dec-19 14:58 48.611738 -117.859423 141 5445ft 113kts
08-Dec-19 14:59 48.586481 -117.830963 141 5390ft 113kts
08-Dec-19 15:00 48.561195 -117.802294 140 5567ft 114kts
08-Dec-19 15:01 48.535918 -117.773468 140 5899ft 112kts
08-Dec-19 15:02 48.510856 -117.744553 140 6213ft 114kts
08-Dec-19 15:03 48.485445 -117.714827 140 6507ft 116kts
08-Dec-19 15:04 48.459796 -117.684575 140 6784ft 117kts
08-Dec-19 15:05 48.433145 -117.653210 140 6950ft 123kts
08-Dec-19 15:06 48.405308 -117.622848 143 7146ft 121kts
08-Dec-19 15:07 48.378032 -117.593756 143 7362ft 125kts
08-Dec-19 15:08 48.349172 -117.562930 143 7419ft 128kts
08-Dec-19 15:09 48.319179 -117.533687 148 7387ft 126kts
08-Dec-19 15:10 48.289078 -117.505248 148 7255ft 126kts
08-Dec-19 15:11 48.259432 -117.476863 148 7257ft 126kts
08-Dec-19 15:12 48.228914 -117.450866 162 7280ft 126kts
08-Dec-19 15:13 48.196302 -117.431984 162 7347ft 126kts
08-Dec-19 15:14 48.163035 -117.416450 169 7397ft 125kts
08-Dec-19 15:14 48.135084 -117.404902 169 7441ft 124kts
08-Dec-19 15:16 48.095655 -117.393198 185 7498ft 121kts
08-Dec-19 15:17 48.061489 -117.390404 184 7411ft 122kts
08-Dec-19 15:17 48.033132 -117.388025 184 7305ft 122kts
08-Dec-19 15:18 47.998989 -117.385166 184 7164ft 122kts
08-Dec-19 15:20 47.959029 -117.381782 184 6840ft 123kts
08-Dec-19 15:20 47.930566 -117.379344 184 6608ft 122kts
08-Dec-19 15:21 47.896151 -117.376481 184 6212ft 123kts
08-Dec-19 15:22 47.863179 -117.381873 201 5809ft 117kts
08-Dec-19 15:23 47.832092 -117.391688 201 5458ft 115kts
08-Dec-19 15:24 47.801051 -117.404257 209 5131ft 109kts
08-Dec-19 15:25 47.773114 -117.420147 211 4975ft 105kts
08-Dec-19 15:26 47.746296 -117.437456 213 4900ft 103kts
08-Dec-19 15:27 47.715928 -117.443257 195 4693ft 111kts
08-Dec-19 15:28 47.685587 -117.451845 206 4180ft 107kts
08-Dec-19 15:29 47.661096 -117.470986 226 3473ft 90kts
08-Dec-19 15:30 47.644525 -117.497006 231 2834ft 86kts
08-Dec-19 15:31 47.629111 -117.521345 224 2331ft 70kts
08-Dec-19 15:32 47.626301 -117.523168 156 2341ft 0kts
08-Dec-19 15:33 47.624483 -117.524931 227 2349ft 14kts
08-Dec-19 15:34 47.620678 -117.530461 207 2361ft 19kts
08-Dec-19 15:35 47.617962 -117.526910 89 2370ft 25kts
08-Dec-19 15:36 47.618704 -117.523739 77 2369ft 0kts
08-Dec-19 15:37 47.618704 -117.523739 77 2369ft 0kts
08-Dec-19 15:38 47.618704 -117.523739 77 2369ft 0kts
08-Dec-19 15:39 47.618704 -117.523739 77 2369ft 0kts
08-Dec-19 15:40 47.618704 -117.523739 77 2369ft 0kts
08-Dec-19 15:41 47.618704 -117.523739 77 2369ft 0kts
08-Dec-19 15:42 47.618704 -117.523739 77 2369ft 0kts
08-Dec-19 15:43 47.618704 -117.523739 77 2369ft 0kts
08-Dec-19 15:44 47.618704 -117.523739 77 2369ft 0kts
08-Dec-19 15:45 47.618704 -117.523739 77 2369ft 0kts
08-Dec-19 15:46 47.618704 -117.523739 77 2369ft 0kts
08-Dec-19 15:47 47.618704 -117.523739 77 2369ft 0kts

Navigation Log

Ident Type
Flight plan parsing failed, navigation log unavailable